EZY41C EGKK-EGCC
Flight info
| Callsign | EZY41C |
|---|---|
| Flight time | 0h 44m |
| Altitude | 24000 |
| Route | LAM N57 WELIN T420 ELVOS |
| Aircraft | A319/M-SDE3FGHIRWY/LB1 |
Departure
| Time | 2026-04-17 09:17 |
|---|---|
| Airport | London Gatwick Airport (EGKK) |
Arrival
| Time | 2026-04-17 10:02 |
|---|---|
| Airport | Manchester Airport (EGCC) |
| Time | Latitude | Longitude | Altitude | Speed | Heading |
|---|---|---|---|---|---|
| 2026-04-17 08:51 | 51.15861 | -0.17941 | 204 ft | 0 kts | 78° |
| 2026-04-17 09:06 | 51.15860 | -0.17946 | 204 ft | 1 kts | 78° |
| 2026-04-17 09:06 | 51.15856 | -0.17973 | 212 ft | 3 kts | 78° |
| 2026-04-17 09:07 | 51.15852 | -0.18005 | 212 ft | 3 kts | 78° |
| 2026-04-17 09:07 | 51.15848 | -0.18036 | 204 ft | 3 kts | 81° |
| 2026-04-17 09:07 | 51.15847 | -0.18065 | 216 ft | 3 kts | 114° |
| 2026-04-17 09:07 | 51.15856 | -0.18083 | 210 ft | 2 kts | 165° |
| 2026-04-17 09:08 | 51.15867 | -0.18087 | 214 ft | 3 kts | 168° |
| 2026-04-17 09:08 | 51.15875 | -0.18089 | 214 ft | 0 kts | 168° |
| 2026-04-17 09:11 | 51.15870 | -0.18088 | 204 ft | 2 kts | 168° |
| 2026-04-17 09:12 | 51.15834 | -0.18076 | 204 ft | 8 kts | 168° |
| 2026-04-17 09:12 | 51.15778 | -0.18056 | 204 ft | 9 kts | 167° |
| 2026-04-17 09:12 | 51.15714 | -0.18024 | 210 ft | 10 kts | 146° |
| 2026-04-17 09:12 | 51.15703 | -0.17920 | 208 ft | 11 kts | 79° |
| 2026-04-17 09:13 | 51.15721 | -0.17801 | 213 ft | 11 kts | 76° |
| 2026-04-17 09:13 | 51.15741 | -0.17676 | 208 ft | 12 kts | 77° |
| 2026-04-17 09:13 | 51.15750 | -0.17543 | 204 ft | 12 kts | 105° |
| 2026-04-17 09:13 | 51.15676 | -0.17485 | 204 ft | 13 kts | 166° |
| 2026-04-17 09:14 | 51.15588 | -0.17452 | 204 ft | 14 kts | 167° |
| 2026-04-17 09:14 | 51.15492 | -0.17418 | 206 ft | 15 kts | 167° |
| 2026-04-17 09:14 | 51.15389 | -0.17381 | 213 ft | 16 kts | 169° |
| 2026-04-17 09:14 | 51.15281 | -0.17345 | 207 ft | 16 kts | 161° |
| 2026-04-17 09:15 | 51.15245 | -0.17235 | 208 ft | 11 kts | 79° |
| 2026-04-17 09:15 | 51.15262 | -0.17116 | 208 ft | 11 kts | 77° |
| 2026-04-17 09:15 | 51.15279 | -0.16988 | 204 ft | 12 kts | 77° |
| 2026-04-17 09:15 | 51.15291 | -0.16853 | 204 ft | 12 kts | 104° |
| 2026-04-17 09:16 | 51.15216 | -0.16803 | 206 ft | 12 kts | 169° |
| 2026-04-17 09:16 | 51.15129 | -0.16819 | 211 ft | 14 kts | 224° |
| 2026-04-17 09:16 | 51.15110 | -0.16891 | 208 ft | 0 kts | 257° |
| 2026-04-17 09:16 | 51.15079 | -0.17113 | 204 ft | 59 kts | 257° |
| 2026-04-17 09:17 | 51.14937 | -0.18145 | 208 ft | 129 kts | 257° |
| 2026-04-17 09:17 | 51.14713 | -0.19786 | 407 ft | 165 kts | 259° |
| 2026-04-17 09:17 | 51.14480 | -0.21641 | 1092 ft | 171 kts | 255° |
| 2026-04-17 09:17 | 51.14229 | -0.23509 | 1824 ft | 179 kts | 255° |
| 2026-04-17 09:18 | 51.13950 | -0.25522 | 2304 ft | 203 kts | 256° |
| 2026-04-17 09:18 | 51.13721 | -0.27847 | 3207 ft | 213 kts | 269° |
| 2026-04-17 09:18 | 51.14164 | -0.30156 | 3925 ft | 228 kts | 301° |
| 2026-04-17 09:18 | 51.15389 | -0.31825 | 4706 ft | 242 kts | 331° |
| 2026-04-17 09:19 | 51.17047 | -0.32191 | 4957 ft | 251 kts | 8° |
| 2026-04-17 09:19 | 51.18599 | -0.30892 | 5001 ft | 255 kts | 47° |
| 2026-04-17 09:19 | 51.19398 | -0.28466 | 5013 ft | 251 kts | 79° |
| 2026-04-17 09:19 | 51.19485 | -0.25753 | 5007 ft | 244 kts | 110° |
| 2026-04-17 09:20 | 51.18659 | -0.23495 | 5012 ft | 234 kts | 142° |
| 2026-04-17 09:20 | 51.17255 | -0.22375 | 5013 ft | 224 kts | 176° |
| 2026-04-17 09:20 | 51.15748 | -0.22652 | 5020 ft | 226 kts | 202° |
| 2026-04-17 09:20 | 51.14162 | -0.23379 | 5004 ft | 248 kts | 185° |
| 2026-04-17 09:21 | 51.12479 | -0.22648 | 5008 ft | 263 kts | 150° |
| 2026-04-17 09:21 | 51.11319 | -0.20353 | 5010 ft | 275 kts | 114° |
| 2026-04-17 09:21 | 51.11178 | -0.17324 | 5011 ft | 282 kts | 78° |
| 2026-04-17 09:21 | 51.12043 | -0.14516 | 5011 ft | 285 kts | 57° |
| 2026-04-17 09:22 | 51.13184 | -0.11934 | 5010 ft | 286 kts | 54° |
| 2026-04-17 09:22 | 51.14355 | -0.09365 | 5010 ft | 286 kts | 54° |
| 2026-04-17 09:22 | 51.15490 | -0.06770 | 5009 ft | 286 kts | 56° |
| 2026-04-17 09:22 | 51.16582 | -0.04128 | 5010 ft | 286 kts | 58° |
| 2026-04-17 09:23 | 51.17639 | -0.01445 | 5007 ft | 286 kts | 59° |
| 2026-04-17 09:23 | 51.18672 | 0.01257 | 4844 ft | 286 kts | 59° |
| 2026-04-17 09:23 | 51.19701 | 0.03982 | 4827 ft | 286 kts | 59° |
| 2026-04-17 09:23 | 51.20719 | 0.06698 | 4807 ft | 286 kts | 59° |
| 2026-04-17 09:24 | 51.21735 | 0.09423 | 4784 ft | 286 kts | 59° |
| 2026-04-17 09:24 | 51.22753 | 0.12154 | 4760 ft | 286 kts | 59° |
| 2026-04-17 09:24 | 51.23771 | 0.14885 | 4741 ft | 286 kts | 59° |
| 2026-04-17 09:24 | 51.24786 | 0.17607 | 4719 ft | 286 kts | 60° |
| 2026-04-17 09:25 | 51.25587 | 0.20500 | 4697 ft | 285 kts | 74° |
| 2026-04-17 09:25 | 51.26003 | 0.23588 | 4681 ft | 285 kts | 79° |
| 2026-04-17 09:25 | 51.26776 | 0.26478 | 4750 ft | 285 kts | 54° |
| 2026-04-17 09:25 | 51.28189 | 0.28666 | 5006 ft | 285 kts | 30° |
| 2026-04-17 09:26 | 51.30018 | 0.29770 | 5278 ft | 280 kts | 5° |
| 2026-04-17 09:26 | 51.31926 | 0.29622 | 5562 ft | 274 kts | 342° |
| 2026-04-17 09:26 | 51.33762 | 0.28816 | 6099 ft | 274 kts | 340° |
| 2026-04-17 09:26 | 51.35603 | 0.28000 | 6179 ft | 274 kts | 341° |
| 2026-04-17 09:27 | 51.37446 | 0.27188 | 6190 ft | 275 kts | 341° |
| 2026-04-17 09:27 | 51.39301 | 0.26373 | 6510 ft | 278 kts | 341° |
| 2026-04-17 09:27 | 51.41166 | 0.25559 | 7614 ft | 278 kts | 341° |
| 2026-04-17 09:27 | 51.43042 | 0.24735 | 8606 ft | 283 kts | 341° |
| 2026-04-17 09:28 | 51.44963 | 0.23885 | 9566 ft | 288 kts | 340° |
| 2026-04-17 09:28 | 51.46911 | 0.23024 | 10427 ft | 297 kts | 340° |
| 2026-04-17 09:28 | 51.48986 | 0.22096 | 10785 ft | 321 kts | 340° |
| 2026-04-17 09:28 | 51.51188 | 0.21107 | 11121 ft | 344 kts | 340° |
| 2026-04-17 09:29 | 51.53535 | 0.20059 | 11761 ft | 354 kts | 341° |
| 2026-04-17 09:29 | 51.55928 | 0.18996 | 12533 ft | 360 kts | 340° |
| 2026-04-17 09:29 | 51.58386 | 0.17910 | 13332 ft | 365 kts | 341° |
| 2026-04-17 09:29 | 51.60817 | 0.16842 | 14083 ft | 370 kts | 340° |
| 2026-04-17 09:30 | 51.63243 | 0.15428 | 14759 ft | 371 kts | 330° |
| 2026-04-17 09:30 | 51.65464 | 0.13323 | 15457 ft | 370 kts | 319° |
| 2026-04-17 09:30 | 51.67398 | 0.10621 | 16160 ft | 368 kts | 310° |
| 2026-04-17 09:30 | 51.69199 | 0.07647 | 16869 ft | 372 kts | 309° |
| 2026-04-17 09:31 | 51.71013 | 0.04656 | 17567 ft | 376 kts | 310° |
| 2026-04-17 09:31 | 51.72852 | 0.01629 | 18275 ft | 379 kts | 310° |
| 2026-04-17 09:31 | 51.74709 | -0.01425 | 18870 ft | 383 kts | 309° |
| 2026-04-17 09:31 | 51.76582 | -0.04511 | 19460 ft | 387 kts | 309° |
| 2026-04-17 09:32 | 51.78470 | -0.07631 | 20076 ft | 390 kts | 309° |
| 2026-04-17 09:32 | 51.80376 | -0.10780 | 20698 ft | 393 kts | 309° |
| 2026-04-17 09:32 | 51.82296 | -0.13952 | 21326 ft | 396 kts | 308° |
| 2026-04-17 09:32 | 51.84226 | -0.17148 | 21976 ft | 399 kts | 308° |
| 2026-04-17 09:33 | 51.86174 | -0.20378 | 22558 ft | 402 kts | 308° |
| 2026-04-17 09:33 | 51.88130 | -0.23623 | 23129 ft | 405 kts | 308° |
| 2026-04-17 09:33 | 51.90102 | -0.26900 | 23680 ft | 407 kts | 308° |
| 2026-04-17 09:33 | 51.92082 | -0.30199 | 24043 ft | 409 kts | 308° |
| 2026-04-17 09:34 | 51.94066 | -0.33511 | 24142 ft | 412 kts | 308° |
| 2026-04-17 09:34 | 51.96082 | -0.36885 | 24166 ft | 418 kts | 308° |
| 2026-04-17 09:34 | 51.98110 | -0.40278 | 24162 ft | 420 kts | 308° |
| 2026-04-17 09:34 | 52.00148 | -0.43683 | 24161 ft | 420 kts | 308° |
| 2026-04-17 09:35 | 52.02184 | -0.47085 | 24158 ft | 420 kts | 308° |
| 2026-04-17 09:35 | 52.04217 | -0.50489 | 24138 ft | 420 kts | 308° |
| 2026-04-17 09:35 | 52.06247 | -0.53896 | 24138 ft | 420 kts | 308° |
| 2026-04-17 09:35 | 52.08275 | -0.57313 | 24140 ft | 420 kts | 307° |
| 2026-04-17 09:36 | 52.10301 | -0.60734 | 24139 ft | 420 kts | 307° |
| 2026-04-17 09:36 | 52.12326 | -0.64152 | 24140 ft | 420 kts | 307° |
| 2026-04-17 09:36 | 52.14348 | -0.67573 | 24140 ft | 420 kts | 307° |
| 2026-04-17 09:36 | 52.16373 | -0.71008 | 24135 ft | 420 kts | 307° |
| 2026-04-17 09:37 | 52.18395 | -0.74441 | 24138 ft | 420 kts | 307° |
| 2026-04-17 09:37 | 52.20415 | -0.77873 | 24133 ft | 420 kts | 307° |
| 2026-04-17 09:37 | 52.22431 | -0.81302 | 24128 ft | 420 kts | 307° |
| 2026-04-17 09:37 | 52.24528 | -0.84624 | 24123 ft | 425 kts | 314° |
| 2026-04-17 09:38 | 52.26953 | -0.87439 | 24115 ft | 432 kts | 322° |
| 2026-04-17 09:38 | 52.29531 | -0.89992 | 24131 ft | 432 kts | 322° |
| 2026-04-17 09:38 | 52.32101 | -0.92543 | 24126 ft | 432 kts | 322° |
| 2026-04-17 09:38 | 52.34669 | -0.95100 | 24124 ft | 432 kts | 322° |
| 2026-04-17 09:39 | 52.37234 | -0.97662 | 24119 ft | 432 kts | 322° |
| 2026-04-17 09:39 | 52.39799 | -1.00229 | 24137 ft | 432 kts | 321° |
| 2026-04-17 09:39 | 52.42364 | -1.02799 | 24123 ft | 433 kts | 321° |
| 2026-04-17 09:39 | 52.44938 | -1.05376 | 24090 ft | 433 kts | 321° |
| 2026-04-17 09:40 | 52.47502 | -1.07945 | 24078 ft | 433 kts | 321° |
| 2026-04-17 09:40 | 52.50077 | -1.10530 | 24068 ft | 434 kts | 321° |
| 2026-04-17 09:40 | 52.52645 | -1.13110 | 23840 ft | 430 kts | 321° |
| 2026-04-17 09:40 | 52.55186 | -1.15663 | 23069 ft | 427 kts | 321° |
| 2026-04-17 09:41 | 52.57708 | -1.18200 | 22340 ft | 424 kts | 321° |
| 2026-04-17 09:41 | 52.60218 | -1.20729 | 21663 ft | 421 kts | 322° |
| 2026-04-17 09:41 | 52.62704 | -1.23238 | 21031 ft | 417 kts | 322° |
| 2026-04-17 09:41 | 52.65164 | -1.25731 | 20430 ft | 415 kts | 322° |
| 2026-04-17 09:42 | 52.67610 | -1.28219 | 20114 ft | 414 kts | 322° |
| 2026-04-17 09:42 | 52.70068 | -1.30721 | 20037 ft | 414 kts | 322° |
| 2026-04-17 09:42 | 52.72515 | -1.33212 | 20058 ft | 415 kts | 322° |
| 2026-04-17 09:42 | 52.74960 | -1.35700 | 19814 ft | 411 kts | 322° |
| 2026-04-17 09:43 | 52.77390 | -1.38171 | 19304 ft | 408 kts | 322° |
| 2026-04-17 09:43 | 52.79806 | -1.40633 | 18774 ft | 406 kts | 322° |
| 2026-04-17 09:43 | 52.82201 | -1.43079 | 18230 ft | 403 kts | 322° |
| 2026-04-17 09:43 | 52.84550 | -1.45477 | 18005 ft | 388 kts | 322° |
| 2026-04-17 09:44 | 52.86792 | -1.47758 | 17865 ft | 369 kts | 322° |
| 2026-04-17 09:44 | 52.88918 | -1.49930 | 17722 ft | 348 kts | 322° |
| 2026-04-17 09:44 | 52.90932 | -1.51996 | 17375 ft | 335 kts | 321° |
| 2026-04-17 09:44 | 52.92862 | -1.53991 | 16810 ft | 329 kts | 321° |
| 2026-04-17 09:45 | 52.94821 | -1.56023 | 16221 ft | 325 kts | 321° |
| 2026-04-17 09:45 | 52.96729 | -1.58000 | 15652 ft | 322 kts | 321° |
| 2026-04-17 09:45 | 52.98593 | -1.59931 | 15103 ft | 318 kts | 321° |
| 2026-04-17 09:45 | 53.00461 | -1.61867 | 14581 ft | 315 kts | 322° |
| 2026-04-17 09:46 | 53.02315 | -1.63787 | 14023 ft | 313 kts | 322° |
| 2026-04-17 09:46 | 53.04151 | -1.65698 | 13443 ft | 310 kts | 321° |
| 2026-04-17 09:46 | 53.05828 | -1.67932 | 12834 ft | 300 kts | 309° |
| 2026-04-17 09:46 | 53.07181 | -1.70452 | 12552 ft | 284 kts | 304° |
| 2026-04-17 09:47 | 53.08413 | -1.72834 | 12405 ft | 268 kts | 304° |
| 2026-04-17 09:47 | 53.09608 | -1.75128 | 12055 ft | 259 kts | 304° |
| 2026-04-17 09:47 | 53.10781 | -1.77388 | 11572 ft | 256 kts | 304° |
| 2026-04-17 09:47 | 53.11940 | -1.79636 | 11094 ft | 254 kts | 304° |
| 2026-04-17 09:48 | 53.13082 | -1.81856 | 10645 ft | 252 kts | 304° |
| 2026-04-17 09:48 | 53.14221 | -1.84065 | 10208 ft | 250 kts | 304° |
| 2026-04-17 09:48 | 53.15348 | -1.86256 | 9825 ft | 248 kts | 304° |
| 2026-04-17 09:48 | 53.16467 | -1.88434 | 9392 ft | 246 kts | 304° |
| 2026-04-17 09:49 | 53.17573 | -1.90593 | 8973 ft | 244 kts | 304° |
| 2026-04-17 09:49 | 53.18672 | -1.92739 | 8554 ft | 242 kts | 304° |
| 2026-04-17 09:49 | 53.19759 | -1.94869 | 8136 ft | 240 kts | 304° |
| 2026-04-17 09:49 | 53.20837 | -1.96984 | 7727 ft | 238 kts | 304° |
| 2026-04-17 09:50 | 53.21910 | -1.99084 | 7336 ft | 237 kts | 304° |
| 2026-04-17 09:50 | 53.22613 | -2.00462 | 7103 ft | 235 kts | 304° |
| 2026-04-17 09:50 | 53.24027 | -2.03233 | 7063 ft | 236 kts | 305° |
| 2026-04-17 09:50 | 53.24846 | -2.04457 | 7046 ft | 244 kts | 322° |
| 2026-04-17 09:51 | 53.26506 | -2.05293 | 7061 ft | 261 kts | 354° |
| 2026-04-17 09:51 | 53.28303 | -2.04671 | 7059 ft | 270 kts | 20° |
| 2026-04-17 09:51 | 53.29994 | -2.03294 | 7048 ft | 269 kts | 25° |
| 2026-04-17 09:51 | 53.31645 | -2.01835 | 7035 ft | 267 kts | 25° |
| 2026-04-17 09:52 | 53.33277 | -2.00377 | 6729 ft | 265 kts | 25° |
| 2026-04-17 09:52 | 53.34901 | -1.98916 | 6397 ft | 263 kts | 25° |
| 2026-04-17 09:52 | 53.36511 | -1.97469 | 6042 ft | 264 kts | 25° |
| 2026-04-17 09:52 | 53.38124 | -1.96020 | 5716 ft | 263 kts | 25° |
| 2026-04-17 09:53 | 53.39739 | -1.94562 | 5386 ft | 262 kts | 25° |
| 2026-04-17 09:53 | 53.41344 | -1.93117 | 5075 ft | 262 kts | 25° |
| 2026-04-17 09:53 | 53.42956 | -1.91671 | 4998 ft | 263 kts | 25° |
| 2026-04-17 09:53 | 53.44530 | -1.90254 | 4992 ft | 250 kts | 25° |
| 2026-04-17 09:54 | 53.46029 | -1.88917 | 4996 ft | 237 kts | 22° |
| 2026-04-17 09:54 | 53.47544 | -1.88164 | 4881 ft | 219 kts | 353° |
| 2026-04-17 09:54 | 53.48915 | -1.88781 | 4713 ft | 197 kts | 321° |
| 2026-04-17 09:54 | 53.49918 | -1.90210 | 4502 ft | 183 kts | 297° |
| 2026-04-17 09:55 | 53.50276 | -1.92091 | 4223 ft | 164 kts | 266° |
| 2026-04-17 09:55 | 53.50274 | -1.94007 | 3847 ft | 165 kts | 261° |
| 2026-04-17 09:55 | 53.50195 | -1.95925 | 3583 ft | 162 kts | 252° |
| 2026-04-17 09:55 | 53.49730 | -1.97581 | 3494 ft | 155 kts | 230° |
| 2026-04-17 09:56 | 53.49055 | -1.98983 | 3492 ft | 156 kts | 229° |
| 2026-04-17 09:56 | 53.48383 | -2.00395 | 3489 ft | 156 kts | 230° |
| 2026-04-17 09:56 | 53.47705 | -2.01818 | 3496 ft | 157 kts | 229° |
| 2026-04-17 09:56 | 53.47015 | -2.03261 | 3497 ft | 156 kts | 229° |
| 2026-04-17 09:57 | 53.46347 | -2.04660 | 3426 ft | 155 kts | 229° |
| 2026-04-17 09:57 | 53.45663 | -2.06088 | 3260 ft | 154 kts | 229° |
| 2026-04-17 09:57 | 53.45005 | -2.07464 | 3078 ft | 152 kts | 229° |
| 2026-04-17 09:57 | 53.44332 | -2.08868 | 2868 ft | 153 kts | 228° |
| 2026-04-17 09:58 | 53.43679 | -2.10230 | 2692 ft | 149 kts | 228° |
| 2026-04-17 09:58 | 53.43047 | -2.11550 | 2503 ft | 137 kts | 227° |
| 2026-04-17 09:58 | 53.42468 | -2.12758 | 2317 ft | 128 kts | 226° |
| 2026-04-17 09:58 | 53.41929 | -2.13881 | 2145 ft | 124 kts | 225° |
| 2026-04-17 09:59 | 53.41392 | -2.14999 | 1969 ft | 122 kts | 224° |
| 2026-04-17 09:59 | 53.40858 | -2.16108 | 1812 ft | 122 kts | 224° |
| 2026-04-17 09:59 | 53.40332 | -2.17202 | 1645 ft | 121 kts | 223° |
| 2026-04-17 09:59 | 53.39813 | -2.18281 | 1485 ft | 119 kts | 224° |
| 2026-04-17 10:00 | 53.39291 | -2.19367 | 1317 ft | 119 kts | 225° |
| 2026-04-17 10:00 | 53.38772 | -2.20444 | 1147 ft | 119 kts | 224° |
| 2026-04-17 10:00 | 53.38248 | -2.21533 | 972 ft | 119 kts | 225° |
| 2026-04-17 10:00 | 53.37731 | -2.22607 | 811 ft | 119 kts | 225° |
| 2026-04-17 10:01 | 53.37209 | -2.23683 | 655 ft | 119 kts | 226° |
| 2026-04-17 10:01 | 53.36693 | -2.24768 | 491 ft | 118 kts | 227° |
| 2026-04-17 10:01 | 53.36177 | -2.25846 | 311 ft | 119 kts | 228° |
| 2026-04-17 10:01 | 53.35685 | -2.26846 | 265 ft | 82 kts | 232° |
| 2026-04-17 10:02 | 53.35403 | -2.27461 | 244 ft | 69 kts | 231° |
| 2026-04-17 10:02 | 53.35251 | -2.27970 | 236 ft | 35 kts | 268° |
| 2026-04-17 10:02 | 53.35247 | -2.28193 | 231 ft | 4 kts | 300° |
| 2026-04-17 10:02 | 53.35248 | -2.28195 | 231 ft | 1 kts | 301° |
| 2026-04-17 10:03 | 53.35252 | -2.28207 | 232 ft | 1 kts | 304° |
| 2026-04-17 10:03 | 53.35262 | -2.28215 | 232 ft | 2 kts | 338° |
| 2026-04-17 10:03 | 53.35277 | -2.28218 | 232 ft | 3 kts | 358° |
| 2026-04-17 10:03 | 53.35297 | -2.28210 | 233 ft | 3 kts | 14° |
| 2026-04-17 10:04 | 53.35324 | -2.28196 | 235 ft | 5 kts | 19° |
| 2026-04-17 10:04 | 53.35373 | -2.28172 | 235 ft | 10 kts | 12° |
| 2026-04-17 10:04 | 53.35459 | -2.28147 | 237 ft | 17 kts | 15° |
| 2026-04-17 10:04 | 53.35568 | -2.28017 | 237 ft | 19 kts | 49° |
| 2026-04-17 10:05 | 53.35664 | -2.27889 | 243 ft | 17 kts | 11° |
| 2026-04-17 10:05 | 53.35778 | -2.27871 | 249 ft | 15 kts | 5° |
| 2026-04-17 10:05 | 53.35874 | -2.27855 | 254 ft | 13 kts | 6° |
| 2026-04-17 10:05 | 53.35963 | -2.27865 | 255 ft | 14 kts | 336° |
| 2026-04-17 10:06 | 53.36041 | -2.27973 | 255 ft | 15 kts | 316° |
| 2026-04-17 10:06 | 53.36125 | -2.28100 | 255 ft | 17 kts | 317° |
| 2026-04-17 10:06 | 53.36213 | -2.28251 | 255 ft | 19 kts | 314° |
| 2026-04-17 10:06 | 53.36308 | -2.28409 | 255 ft | 18 kts | 315° |
| 2026-04-17 10:07 | 53.36422 | -2.28504 | 255 ft | 19 kts | 334° |
| 2026-04-17 10:07 | 53.36520 | -2.28660 | 255 ft | 20 kts | 314° |
| 2026-04-17 10:07 | 53.36611 | -2.28788 | 255 ft | 7 kts | 357° |
| 2026-04-17 10:07 | 53.36655 | -2.28740 | 255 ft | 9 kts | 43° |
| 2026-04-17 10:08 | 53.36697 | -2.28740 | 255 ft | 7 kts | 327° |
| 2026-04-17 10:08 | 53.36736 | -2.28799 | 255 ft | 8 kts | 315° |
| 2026-04-17 10:08 | 53.36739 | -2.28805 | 255 ft | 0 kts | 316° |